Eastern Tiger — 3FYQ7 — position and weather

sailwx.info

Track history (hours):
 
Tides and Currents Weather Stations Pressure Air Temp Water Temp Dewpoint Dewpoint Depression Visibility Wind Speed Wind Dir Waves Ship Positions

Eastern Tiger

Last reported at 2018-Jan-11 12:25 UTC. Time now 2018-Jan-20 18:34 UTC.
Position N 33°15' E 132°01'.
Warning: this ship's position is 9 days out of date.

Length 97 m; draft 4.8 m.

Type: Ship (hazmat cat C). MMSI: 351818000.

Date/timePositionNaut miles runAvg speedWind from/ knotsBaromVisibWave heightAir tempDewpointWater temp
2018-Jan-11 12:25N 33°15' E 132°01'714.7
2018-Jan-11 11:57N 33°21' E 131°57'614.3
2018-Jan-11 11:30N 33°26' E 131°54'714.0
2018-Jan-11 11:00N 33°33' E 131°50'714.0
2018-Jan-11 10:30N 33°39' E 131°46'713.9
2018-Jan-11 10:00N 33°45' E 131°42'713.9
2018-Jan-11 09:30N 33°47' E 131°34'713.8
2018-Jan-11 08:59N 33°48' E 131°26'613.7
2018-Jan-11 08:30N 33°50' E 131°18'713.6
2018-Jan-11 08:00N 33°52' E 131°10'713.1
2018-Jan-11 07:30N 33°56' E 131°04'611.0
2018-Jan-11 07:01N 33°58' E 130°58'5 9.3
2018-Jan-11 06:30N 33°55' E 130°53'611.2
2018-Jan-11 06:00N 34°00' E 130°51'611.6
2018-Jan-11 05:30N 34°03' E 130°45'713.4
2018-Jan-11 05:00N 34°02' E 130°37'713.5
2018-Jan-11 04:30N 34°02' E 130°29'713.4
2018-Jan-11 04:00N 34°01' E 130°21'713.3
2018-Jan-11 03:30N 34°00' E 130°13'  
Track history (hours):
 
Tides and Currents Weather Stations Pressure Air Temp Water Temp Dewpoint Dewpoint Depression Visibility Wind Speed Wind Dir Waves Ship Positions

Eastern Tiger

Last reported at 2018-Jan-11 12:25 UTC. Time now 2018-Jan-20 18:34 UTC.
Position N 33°15' E 132°01'.
Warning: this ship's position is 9 days out of date.

Length 97 m; draft 4.8 m.

Type: Ship (hazmat cat C). MMSI: 351818000.

Date/timePositionNaut miles runAvg speedWind from/ knotsBaromVisibWave heightAir tempDewpointWater temp
2018-Jan-11 12:25N 33°15' E 132°01'714.7
2018-Jan-11 11:57N 33°21' E 131°57'614.3
2018-Jan-11 11:30N 33°26' E 131°54'714.0
2018-Jan-11 11:00N 33°33' E 131°50'714.0
2018-Jan-11 10:30N 33°39' E 131°46'713.9
2018-Jan-11 10:00N 33°45' E 131°42'713.9
2018-Jan-11 09:30N 33°47' E 131°34'713.8
2018-Jan-11 08:59N 33°48' E 131°26'613.7
2018-Jan-11 08:30N 33°50' E 131°18'713.6
2018-Jan-11 08:00N 33°52' E 131°10'713.1
2018-Jan-11 07:30N 33°56' E 131°04'611.0
2018-Jan-11 07:01N 33°58' E 130°58'5 9.3
2018-Jan-11 06:30N 33°55' E 130°53'611.2
2018-Jan-11 06:00N 34°00' E 130°51'611.6
2018-Jan-11 05:30N 34°03' E 130°45'713.4
2018-Jan-11 05:00N 34°02' E 130°37'713.5
2018-Jan-11 04:30N 34°02' E 130°29'713.4
2018-Jan-11 04:00N 34°01' E 130°21'713.3
2018-Jan-11 03:30N 34°00' E 130°13'  

Dump ship's entire track history